createdAt,value
2022-09-01T00:00:36.491Z,0.80
2022-09-01T00:01:36.471Z,0.90
2022-09-01T00:02:36.527Z,1.00
2022-09-01T00:03:36.782Z,0.90
2022-09-01T00:04:36.506Z,1.10
2022-09-01T00:05:36.440Z,1.10
2022-09-01T00:06:36.420Z,1.10
2022-09-01T00:07:36.410Z,0.70
2022-09-01T00:08:36.394Z,0.80
2022-09-01T00:09:36.559Z,0.70
2022-09-01T00:10:36.380Z,0.90
2022-09-01T00:11:36.374Z,0.90
2022-09-01T00:12:36.350Z,0.80
2022-09-01T00:13:36.341Z,1.00
2022-09-01T00:14:38.507Z,1.20
2022-09-01T00:15:37.548Z,1.00
2022-09-01T00:16:36.311Z,1.20
2022-09-01T00:17:36.311Z,1.20
2022-09-01T00:18:36.285Z,1.10
2022-09-01T00:19:36.282Z,1.10
2022-09-01T00:20:36.272Z,1.10
2022-09-01T00:21:36.432Z,1.00
2022-09-01T00:22:36.240Z,1.00
2022-09-01T00:23:36.247Z,1.40
2022-09-01T00:24:36.225Z,1.20
2022-09-01T00:25:36.213Z,1.40
2022-09-01T00:26:36.200Z,1.20
2022-09-01T00:27:36.543Z,1.20
2022-09-01T00:28:36.172Z,1.10
2022-09-01T00:29:36.190Z,1.10
2022-09-01T00:30:36.160Z,1.20
2022-09-01T00:31:36.142Z,1.00
2022-09-01T00:32:36.139Z,1.10
2022-09-01T00:33:36.282Z,0.90
2022-09-01T00:34:36.112Z,1.20
2022-09-01T00:35:37.319Z,0.90
2022-09-01T00:36:36.092Z,1.20
2022-09-01T00:37:36.085Z,1.10
2022-09-01T00:38:36.072Z,0.80
2022-09-01T00:39:36.272Z,1.10
2022-09-01T00:40:36.147Z,1.00
2022-09-01T00:41:36.049Z,1.20
2022-09-01T00:42:36.031Z,1.00
2022-09-01T00:43:36.021Z,1.10
2022-09-01T00:44:36.006Z,0.90
2022-09-01T00:45:36.330Z,0.90
2022-09-01T00:46:40.214Z,0.80
2022-09-01T00:47:36.981Z,0.80
2022-09-01T00:48:35.956Z,0.80
2022-09-01T00:49:35.952Z,0.70
2022-09-01T00:50:35.943Z,1.00
2022-09-01T00:51:36.089Z,0.90
2022-09-01T00:52:35.921Z,0.80
2022-09-01T00:53:36.083Z,0.90
2022-09-01T00:54:35.897Z,1.00
2022-09-01T00:55:35.892Z,1.20
2022-09-01T00:56:35.872Z,1.00
2022-09-01T00:57:35.881Z,1.00
2022-09-01T00:58:35.852Z,0.80
2022-09-01T00:59:36.012Z,1.10
2022-09-01T01:00:35.835Z,0.70
2022-09-01T01:01:35.835Z,0.80
2022-09-01T01:02:35.875Z,0.90
2022-09-01T01:03:35.804Z,1.00
2022-09-01T01:04:35.789Z,0.90
2022-09-01T01:05:36.106Z,0.90
2022-09-01T01:06:35.775Z,0.90
2022-09-01T01:07:35.760Z,0.80
2022-09-01T01:08:35.747Z,1.00
2022-09-01T01:09:35.745Z,0.90
2022-09-01T01:10:35.725Z,0.90
2022-09-01T01:11:35.873Z,0.80
2022-09-01T01:12:35.702Z,0.90
2022-09-01T01:13:35.692Z,0.80
2022-09-01T01:14:35.684Z,0.80
2022-09-01T01:15:35.681Z,0.70
2022-09-01T01:16:35.754Z,0.80
2022-09-01T01:17:35.863Z,1.00
2022-09-01T01:18:35.637Z,1.10
2022-09-01T01:19:38.871Z,0.80
2022-09-01T01:20:35.619Z,0.80
2022-09-01T01:21:35.625Z,0.80
2022-09-01T01:22:35.594Z,0.80
2022-09-01T01:23:35.737Z,0.90
2022-09-01T01:24:35.597Z,0.90
2022-09-01T01:25:35.574Z,0.80
2022-09-01T01:26:35.550Z,0.80
2022-09-01T01:27:38.102Z,0.90
2022-09-01T01:28:36.781Z,0.90
2022-09-01T01:29:35.514Z,1.00
2022-09-01T01:30:35.563Z,0.90
2022-09-01T01:31:35.493Z,1.00
2022-09-01T01:32:35.493Z,0.90
2022-09-01T01:33:35.484Z,0.90
2022-09-01T01:34:35.642Z,1.10
2022-09-01T01:35:35.453Z,1.00
2022-09-01T01:36:35.444Z,1.00
2022-09-01T01:37:35.434Z,0.90
2022-09-01T01:38:35.426Z,0.90
2022-09-01T01:39:35.415Z,0.90
2022-09-01T01:40:35.776Z,0.90
2022-09-01T01:41:35.384Z,0.90
2022-09-01T01:42:35.388Z,0.80
2022-09-01T01:43:35.367Z,1.00
2022-09-01T01:44:35.353Z,0.90
2022-09-01T01:45:35.343Z,1.10
2022-09-01T01:46:35.543Z,0.80
2022-09-01T01:47:35.326Z,1.10
2022-09-01T01:48:35.320Z,1.10
2022-09-01T01:49:35.303Z,0.90
2022-09-01T01:50:35.293Z,0.90
2022-09-01T01:51:35.277Z,1.30
2022-09-01T01:52:35.445Z,1.30
2022-09-01T01:53:35.258Z,0.80
2022-09-01T01:54:35.251Z,0.80
2022-09-01T01:56:26.221Z,0.80
2022-09-01T01:57:26.220Z,0.80
2022-09-01T01:58:26.481Z,0.90
2022-09-01T01:59:26.191Z,0.80
2022-09-01T02:00:26.172Z,1.00
2022-09-01T02:01:26.190Z,1.00
2022-09-01T02:02:26.201Z,0.80
2022-09-01T02:03:26.145Z,1.00
2022-09-01T02:04:26.299Z,0.80
2022-09-01T02:05:26.121Z,0.80
2022-09-01T02:06:26.101Z,1.10
2022-09-01T02:07:26.108Z,1.10
2022-09-01T02:08:26.277Z,1.00
2022-09-01T02:09:26.089Z,1.30
2022-09-01T02:10:26.213Z,1.00
2022-09-01T02:11:26.051Z,0.80
2022-09-01T02:12:26.032Z,0.70
2022-09-01T02:13:26.579Z,0.90
2022-09-01T02:14:26.020Z,0.90
2022-09-01T02:15:26.008Z,1.00
2022-09-01T02:16:26.230Z,0.90
2022-09-01T02:17:25.997Z,0.80
2022-09-01T02:18:25.971Z,0.80
2022-09-01T02:19:25.961Z,1.00
2022-09-01T02:20:25.952Z,1.30
2022-09-01T02:21:25.951Z,1.00
2022-09-01T02:22:26.151Z,1.30
2022-09-01T02:23:25.922Z,1.20
2022-09-01T02:24:25.918Z,0.90
2022-09-01T02:25:25.900Z,0.90
2022-09-01T02:26:25.881Z,1.20
2022-09-01T02:27:25.939Z,1.10
2022-09-01T02:28:26.022Z,1.20
2022-09-01T02:29:25.861Z,1.00
2022-09-01T02:30:25.865Z,1.00
2022-09-01T02:31:25.836Z,1.20
2022-09-01T02:32:25.821Z,1.50
2022-09-01T02:33:25.821Z,1.30
2022-09-01T02:34:26.010Z,1.40
2022-09-01T02:35:25.793Z,1.10
2022-09-01T02:36:25.799Z,1.00
2022-09-01T02:37:25.773Z,1.20
2022-09-01T02:38:25.751Z,0.90
2022-09-01T02:39:25.740Z,0.90
2022-09-01T02:40:25.930Z,1.00
2022-09-01T02:41:25.721Z,1.20
2022-09-01T02:42:25.713Z,1.00
2022-09-01T02:43:25.701Z,1.10
2022-09-01T02:44:25.692Z,0.90
2022-09-01T02:45:25.690Z,1.10
2022-09-01T02:46:26.003Z,1.20
2022-09-01T02:47:25.666Z,1.30
2022-09-01T02:48:25.659Z,1.10
2022-09-01T02:49:25.641Z,1.50
2022-09-01T02:50:25.621Z,1.00
2022-09-01T02:51:25.891Z,1.00
2022-09-01T02:52:25.761Z,0.90
2022-09-01T02:53:25.606Z,1.20
2022-09-01T02:54:25.593Z,1.00
2022-09-01T02:55:25.570Z,1.20
2022-09-01T02:56:25.926Z,1.40
2022-09-01T02:57:25.553Z,1.10
2022-09-01T02:58:25.806Z,1.20
2022-09-01T02:59:25.574Z,1.00
2022-09-01T03:00:25.523Z,0.90
2022-09-01T03:01:25.609Z,1.10
2022-09-01T03:02:25.493Z,1.50
2022-09-01T03:03:25.492Z,1.10
2022-09-01T03:04:25.698Z,0.90
2022-09-01T03:05:25.466Z,1.30
2022-09-01T03:06:25.451Z,1.40
2022-09-01T03:07:25.452Z,1.00
2022-09-01T03:08:25.426Z,1.10
2022-09-01T03:09:25.421Z,1.10
2022-09-01T03:10:25.612Z,1.00
2022-09-01T03:11:25.392Z,1.60
2022-09-01T03:12:25.381Z,1.10
2022-09-01T03:13:25.376Z,1.20
2022-09-01T03:14:25.365Z,1.10
2022-09-01T03:15:25.348Z,1.20
2022-09-01T03:16:25.608Z,1.20
2022-09-01T03:17:25.330Z,1.10
2022-09-01T03:18:25.324Z,1.50
2022-09-01T03:19:25.311Z,1.90
2022-09-01T03:20:25.307Z,2.00
2022-09-01T03:21:25.296Z,1.60
2022-09-01T03:22:25.441Z,1.90
2022-09-01T03:23:25.281Z,1.50
2022-09-01T03:24:25.254Z,1.40
2022-09-01T03:25:25.242Z,1.40
2022-09-01T03:26:25.238Z,1.30
2022-09-01T03:27:25.231Z,1.20
2022-09-01T03:28:25.363Z,1.40
2022-09-01T03:29:25.201Z,1.40
2022-09-01T03:30:25.562Z,1.20
2022-09-01T03:31:25.203Z,1.40
2022-09-01T03:32:25.161Z,1.10
2022-09-01T03:33:25.156Z,1.20
2022-09-01T03:34:25.142Z,1.30
2022-09-01T03:35:25.133Z,1.10
2022-09-01T03:36:25.291Z,1.30
2022-09-01T03:37:25.124Z,1.00
2022-09-01T03:38:25.103Z,0.90
2022-09-01T03:39:25.091Z,1.10
2022-09-01T03:40:25.179Z,1.20
2022-09-01T03:41:25.090Z,0.90
2022-09-01T03:42:25.212Z,1.10
2022-09-01T03:43:25.050Z,1.30
2022-09-01T03:44:25.042Z,1.20
2022-09-01T03:45:25.075Z,1.20
2022-09-01T03:46:25.013Z,1.30
2022-09-01T03:47:25.038Z,1.00
2022-09-01T03:48:25.152Z,1.20
2022-09-01T03:49:25.020Z,1.20
2022-09-01T03:50:24.982Z,0.90
2022-09-01T03:51:24.974Z,1.10
2022-09-01T03:52:24.974Z,1.00
2022-09-01T03:53:24.948Z,1.00
2022-09-01T03:54:25.102Z,1.30
2022-09-01T03:55:24.920Z,1.20
2022-09-01T03:56:24.919Z,1.10
2022-09-01T03:57:24.903Z,1.20
2022-09-01T03:58:24.882Z,1.20
2022-09-01T03:59:24.880Z,1.10
2022-09-01T04:00:27.723Z,1.30
2022-09-01T04:01:24.890Z,0.90
2022-09-01T04:02:25.104Z,1.10
2022-09-01T04:03:28.597Z,1.10
2022-09-01T04:04:24.821Z,1.20
2022-09-01T04:05:24.815Z,1.10
2022-09-01T04:06:24.803Z,1.00
2022-09-01T04:07:24.796Z,1.00
2022-09-01T04:08:25.008Z,0.90
2022-09-01T04:09:24.771Z,1.10
2022-09-01T04:10:24.774Z,1.20
2022-09-01T04:11:24.752Z,1.10
2022-09-01T04:12:24.737Z,1.30
2022-09-01T04:13:24.745Z,1.00
2022-09-01T04:14:24.939Z,1.30
2022-09-01T04:15:24.721Z,1.20
2022-09-01T04:16:24.726Z,1.10
2022-09-01T04:17:27.497Z,1.50
2022-09-01T04:18:25.670Z,1.00
2022-09-01T04:19:24.665Z,1.00
2022-09-01T04:20:24.855Z,1.10
2022-09-01T04:21:24.640Z,1.30
2022-09-01T04:22:24.633Z,1.20
2022-09-01T04:23:24.616Z,1.10
2022-09-01T04:24:24.613Z,1.00
2022-09-01T04:25:24.960Z,1.10
2022-09-01T04:26:24.588Z,1.10
2022-09-01T04:27:24.579Z,1.20
2022-09-01T04:28:24.567Z,1.30
2022-09-01T04:29:24.547Z,1.30
2022-09-01T04:30:24.546Z,1.60
2022-09-01T04:31:24.737Z,1.20
2022-09-01T04:32:24.583Z,1.50
2022-09-01T04:33:24.509Z,1.20
2022-09-01T04:34:24.513Z,1.60
2022-09-01T04:35:24.488Z,1.20
2022-09-01T04:36:24.483Z,1.40
2022-09-01T04:37:24.632Z,1.30
2022-09-01T04:38:24.457Z,1.60
2022-09-01T04:39:24.451Z,1.10
2022-09-01T04:40:24.458Z,1.20
2022-09-01T04:41:24.432Z,1.00
2022-09-01T04:42:24.570Z,1.10
2022-09-01T04:43:24.569Z,1.50
2022-09-01T04:44:24.404Z,1.40
2022-09-01T04:45:24.419Z,1.30
2022-09-01T04:46:24.362Z,1.70
2022-09-01T04:47:24.354Z,1.30
2022-09-01T04:48:24.369Z,1.30
2022-09-01T04:49:24.500Z,1.80
2022-09-01T04:50:24.552Z,1.20
2022-09-01T04:51:24.317Z,1.30
2022-09-01T04:52:24.303Z,1.60
2022-09-01T04:53:24.298Z,1.50
2022-09-01T04:54:24.285Z,1.10
2022-09-01T04:55:24.273Z,1.50
2022-09-01T04:56:27.613Z,1.30
2022-09-01T04:57:24.252Z,1.30
2022-09-01T04:58:24.395Z,1.30
2022-09-01T04:59:24.370Z,1.30
2022-09-01T05:00:24.213Z,1.20
2022-09-01T05:01:24.271Z,1.30
2022-09-01T05:02:24.435Z,1.30
2022-09-01T05:03:24.729Z,1.10
2022-09-01T05:04:24.174Z,1.50
2022-09-01T05:05:24.247Z,1.40
2022-09-01T05:06:24.145Z,1.30
2022-09-01T05:07:24.148Z,1.20
2022-09-01T05:08:24.824Z,1.60
2022-09-01T05:09:24.120Z,1.40
2022-09-01T05:10:24.119Z,1.30
2022-09-01T05:11:24.087Z,1.10
2022-09-01T05:12:24.084Z,1.40
2022-09-01T05:13:24.072Z,1.20
2022-09-01T05:14:24.148Z,1.30
2022-09-01T05:15:24.045Z,1.30
2022-09-01T05:16:25.420Z,1.60
2022-09-01T05:17:24.033Z,1.40
2022-09-01T05:18:24.037Z,1.40
2022-09-01T05:19:24.004Z,1.20
2022-09-01T05:20:24.179Z,1.30
2022-09-01T05:21:23.990Z,1.30
2022-09-01T05:22:23.983Z,1.00
2022-09-01T05:23:23.964Z,1.30
2022-09-01T05:24:23.958Z,1.50
2022-09-01T05:25:23.947Z,1.20
2022-09-01T05:26:24.304Z,1.30
2022-09-01T05:27:23.932Z,1.10
2022-09-01T05:28:23.913Z,1.40
2022-09-01T05:29:23.894Z,1.10
2022-09-01T05:30:23.899Z,1.60
2022-09-01T05:31:23.930Z,1.30
2022-09-01T05:32:24.048Z,1.50
2022-09-01T05:33:23.847Z,1.60
2022-09-01T05:34:23.868Z,1.90
2022-09-01T05:35:23.830Z,1.70
2022-09-01T05:36:24.830Z,1.70
2022-09-01T05:37:23.803Z,1.90
2022-09-01T05:38:23.965Z,2.00
2022-09-01T05:39:23.808Z,1.80
2022-09-01T05:40:23.845Z,2.20
2022-09-01T05:41:23.827Z,2.20
2022-09-01T05:42:23.757Z,2.20
2022-09-01T05:43:23.745Z,2.20
2022-09-01T05:44:23.936Z,2.10
2022-09-01T05:45:23.724Z,2.30
2022-09-01T05:46:23.749Z,2.50
2022-09-01T05:47:23.695Z,2.20
2022-09-01T05:48:23.685Z,2.10
2022-09-01T05:49:23.676Z,2.00
2022-09-01T05:50:23.853Z,2.50
2022-09-01T05:51:43.271Z,1.90
2022-09-01T05:52:24.644Z,2.10
2022-09-01T05:53:23.646Z,2.20
2022-09-01T05:54:23.643Z,2.00
2022-09-01T05:55:23.625Z,2.20
2022-09-01T05:56:23.759Z,2.50
2022-09-01T05:57:34.336Z,3.20
2022-09-01T05:58:24.611Z,2.30
2022-09-01T05:59:24.899Z,2.60
2022-09-01T06:00:23.553Z,2.70
2022-09-01T06:01:23.545Z,2.30
2022-09-01T06:02:23.840Z,2.40
2022-09-01T06:03:23.873Z,2.50
2022-09-01T06:04:23.513Z,2.70
2022-09-01T06:05:23.500Z,2.40
2022-09-01T06:06:23.504Z,2.30
2022-09-01T06:07:26.479Z,2.50
2022-09-01T06:08:23.685Z,2.50
2022-09-01T06:09:23.455Z,2.70
2022-09-01T06:10:23.446Z,2.30
2022-09-01T06:11:23.433Z,2.60
2022-09-01T06:12:23.462Z,2.70
2022-09-01T06:13:25.742Z,2.50
2022-09-01T06:14:23.586Z,2.40
2022-09-01T06:15:23.384Z,2.00
2022-09-01T06:16:23.437Z,2.50
2022-09-01T06:17:23.364Z,2.20
2022-09-01T06:18:23.365Z,2.30
2022-09-01T06:19:23.346Z,2.00
2022-09-01T06:20:23.674Z,2.10
2022-09-01T06:21:23.324Z,3.10
2022-09-01T06:22:23.315Z,3.10
2022-09-01T06:23:23.299Z,2.20
2022-09-01T06:24:23.294Z,2.30
2022-09-01T06:25:23.275Z,2.30
2022-09-01T06:26:23.425Z,1.70
2022-09-01T06:27:23.274Z,2.00
2022-09-01T06:28:23.248Z,1.70
2022-09-01T06:29:23.245Z,1.90
2022-09-01T06:30:24.403Z,1.50
2022-09-01T06:31:23.340Z,1.70
2022-09-01T06:32:23.377Z,1.40
2022-09-01T06:33:23.195Z,1.60
2022-09-01T06:34:23.198Z,1.80
2022-09-01T06:35:23.164Z,2.00
2022-09-01T06:36:23.166Z,1.80
2022-09-01T06:37:23.311Z,1.50
2022-09-01T06:38:23.332Z,1.30
2022-09-01T06:39:23.159Z,1.10
2022-09-01T06:40:23.161Z,1.40
2022-09-01T06:41:23.106Z,1.20
2022-09-01T06:42:23.112Z,1.00
2022-09-01T06:43:23.403Z,1.20
2022-09-01T06:44:23.446Z,1.30
2022-09-01T06:45:23.062Z,1.00
2022-09-01T06:46:23.090Z,1.10
2022-09-01T06:47:23.041Z,1.20
2022-09-01T06:48:23.055Z,0.90
2022-09-01T06:49:23.016Z,1.20
2022-09-01T06:51:24.008Z,1.10
2022-09-01T06:52:22.979Z,1.20
2022-09-01T06:53:39.021Z,1.00
2022-09-01T06:54:23.964Z,0.90
2022-09-01T06:55:22.950Z,1.00
2022-09-01T06:56:23.330Z,1.20
2022-09-01T06:58:24.048Z,1.10
2022-09-01T06:59:22.905Z,1.00
2022-09-01T07:00:22.896Z,1.00
2022-09-01T07:01:23.045Z,0.90
2022-09-01T07:02:26.492Z,1.40
2022-09-01T07:03:22.855Z,1.10
2022-09-01T07:04:22.854Z,1.10
2022-09-01T07:08:23.844Z,1.00
2022-09-01T07:09:47.374Z,0.90
2022-09-01T07:10:23.873Z,1.10
2022-09-01T07:12:25.762Z,1.40
2022-09-01T07:13:22.792Z,1.00
2022-09-01T07:14:22.745Z,1.20
2022-09-01T07:16:33.843Z,1.30
2022-09-01T07:17:23.843Z,1.20
2022-09-01T07:18:22.706Z,1.10
2022-09-01T07:19:23.349Z,1.30
2022-09-01T07:20:24.093Z,1.10
2022-09-01T07:21:40.789Z,1.60
2022-09-01T07:23:03.480Z,1.70
2022-09-01T07:23:23.651Z,2.10
2022-09-01T07:24:26.569Z,2.10
2022-09-01T07:25:24.157Z,1.60
2022-09-01T07:26:25.649Z,1.70
2022-09-01T07:27:22.598Z,2.10
2022-09-01T07:28:25.364Z,2.80
2022-09-01T07:29:22.587Z,3.00
2022-09-01T07:30:24.240Z,2.70
2022-09-01T07:34:39.474Z,1.60
2022-09-01T07:35:23.506Z,1.50
2022-09-01T07:36:25.910Z,1.10
2022-09-01T07:43:23.487Z,1.10
2022-09-01T07:44:22.425Z,1.20
2022-09-01T07:45:26.061Z,0.80
2022-09-01T07:46:38.065Z,1.10
2022-09-01T07:47:52.440Z,1.10
2022-09-01T07:49:35.475Z,0.90
2022-09-01T07:51:07.495Z,1.00
2022-09-01T07:51:38.862Z,1.20
2022-09-01T07:52:23.337Z,1.20
2022-09-01T07:53:22.346Z,0.90
2022-09-01T07:54:22.501Z,1.00
2022-09-01T07:55:22.353Z,0.80
2022-09-01T07:56:22.293Z,1.00
2022-09-01T07:57:22.277Z,1.40
2022-09-01T07:58:22.270Z,1.10
2022-09-01T07:59:22.252Z,1.30
2022-09-01T08:00:22.426Z,1.00
2022-09-01T08:01:22.325Z,1.00
2022-09-01T08:02:22.250Z,1.10
2022-09-01T08:03:22.483Z,1.00
2022-09-01T08:04:22.206Z,1.10
2022-09-01T08:05:22.188Z,0.90
2022-09-01T08:06:22.339Z,1.20
2022-09-01T08:07:22.183Z,1.10
2022-09-01T08:08:27.782Z,1.20
2022-09-01T08:09:37.135Z,1.00
2022-09-01T08:10:23.185Z,1.00
2022-09-01T08:11:40.058Z,1.20
2022-09-01T08:12:28.809Z,1.20
2022-09-01T08:13:23.107Z,1.10
2022-09-01T08:14:22.093Z,1.20
2022-09-01T08:16:23.129Z,1.20
2022-09-01T08:17:50.877Z,1.10
2022-09-01T08:18:23.264Z,1.20
2022-09-01T08:19:22.048Z,1.00
2022-09-01T08:20:22.041Z,1.10
2022-09-01T08:21:22.164Z,0.90
2022-09-01T08:22:22.021Z,1.20
2022-09-01T08:23:21.990Z,1.30
2022-09-01T08:24:22.141Z,1.40
2022-09-01T08:25:24.897Z,3.00
2022-09-01T08:26:22.020Z,2.90
2022-09-01T08:27:22.059Z,2.60
2022-09-01T08:28:29.205Z,2.10
2022-09-01T08:29:23.085Z,1.20
2022-09-01T08:30:21.915Z,1.10
2022-09-01T08:31:21.941Z,1.10
2022-09-01T08:32:21.903Z,1.10
2022-09-01T08:33:21.880Z,1.20
2022-09-01T08:34:21.881Z,1.00
2022-09-01T08:35:24.853Z,1.20
2022-09-01T08:36:24.827Z,1.10
2022-09-01T08:37:21.850Z,1.20
2022-09-01T08:38:21.959Z,1.20
2022-09-01T08:39:21.833Z,1.30
2022-09-01T08:40:21.845Z,1.10
2022-09-01T08:41:21.810Z,0.90
2022-09-01T08:42:23.077Z,1.00
2022-09-01T08:43:21.922Z,0.80
2022-09-01T08:44:21.771Z,1.10
2022-09-01T08:45:21.761Z,1.00
2022-09-01T08:46:21.771Z,1.10
2022-09-01T08:47:39.422Z,0.80
2022-09-01T08:49:16.112Z,1.00
2022-09-01T08:49:26.806Z,0.70
2022-09-01T08:50:21.703Z,1.00
2022-09-01T08:51:21.692Z,0.90
2022-09-01T08:52:21.682Z,1.20
2022-09-01T08:53:21.677Z,1.00
2022-09-01T08:54:27.670Z,1.10
2022-09-01T08:55:22.654Z,1.10
2022-09-01T08:56:21.632Z,1.10
2022-09-01T08:57:21.642Z,1.00
2022-09-01T08:58:22.283Z,1.10
2022-09-01T08:59:21.618Z,1.20
2022-09-01T09:00:22.011Z,1.10
2022-09-01T09:01:21.629Z,0.90
2022-09-01T09:02:21.621Z,1.30
2022-09-01T09:03:21.580Z,0.90
2022-09-01T09:04:21.557Z,1.10
2022-09-01T09:05:21.553Z,1.10
2022-09-01T09:06:21.716Z,1.10
2022-09-01T09:07:21.522Z,0.90
2022-09-01T09:08:21.514Z,1.10
2022-09-01T09:09:32.433Z,0.90
2022-09-01T09:10:22.493Z,1.00
2022-09-01T09:11:21.568Z,1.10
2022-09-01T09:12:21.679Z,0.90
2022-09-01T09:13:21.593Z,1.10
2022-09-01T09:14:21.483Z,1.10
2022-09-01T09:15:21.433Z,1.10
2022-09-01T09:16:21.468Z,1.10
2022-09-01T09:17:21.413Z,1.20
2022-09-01T09:18:38.856Z,1.20
2022-09-01T09:19:22.392Z,1.10
2022-09-01T09:20:21.374Z,1.10
2022-09-01T09:21:21.381Z,1.10
2022-09-01T09:22:21.555Z,1.70
2022-09-01T09:23:21.756Z,0.90
2022-09-01T09:24:22.703Z,1.30
2022-09-01T09:25:21.329Z,1.10
2022-09-01T09:26:22.338Z,1.10
2022-09-01T09:27:21.322Z,1.10
2022-09-01T09:28:21.295Z,1.10
2022-09-01T09:29:21.285Z,1.10
2022-09-01T09:30:21.436Z,0.70
2022-09-01T09:31:21.297Z,0.80
2022-09-01T09:32:22.865Z,1.00
2022-09-01T09:34:22.234Z,1.00
2022-09-01T09:35:21.227Z,1.00
2022-09-01T09:36:22.196Z,1.20
2022-09-01T09:37:21.195Z,1.00
2022-09-01T09:38:21.710Z,1.10
2022-09-01T09:39:21.176Z,1.10
2022-09-01T09:40:21.182Z,0.80
2022-09-01T09:41:27.032Z,1.10
2022-09-01T09:42:22.305Z,0.90
2022-09-01T09:43:21.272Z,0.80
2022-09-01T09:44:22.842Z,0.80
2022-09-01T09:45:21.220Z,1.00
2022-09-01T09:46:25.224Z,2.20
2022-09-01T09:47:42.382Z,3.50
2022-09-01T09:48:22.230Z,2.10
2022-09-01T09:49:34.461Z,2.10
2022-09-01T09:50:22.061Z,1.80
2022-09-01T09:51:21.057Z,1.00
2022-09-01T09:52:21.052Z,1.30
2022-09-01T09:53:21.351Z,1.10
2022-09-01T09:54:21.011Z,0.90
2022-09-01T09:55:21.290Z,0.80
2022-09-01T09:56:20.986Z,0.90
2022-09-01T09:57:22.146Z,1.10
2022-09-01T09:58:20.969Z,2.40
2022-09-01T09:59:34.186Z,1.90
2022-09-01T10:00:24.025Z,1.70
2022-09-01T10:01:20.999Z,1.20
2022-09-01T10:02:20.926Z,1.10
2022-09-01T10:03:21.098Z,0.90
2022-09-01T10:04:20.998Z,0.90
2022-09-01T10:05:21.078Z,1.00
2022-09-01T10:06:20.887Z,0.70
2022-09-01T10:07:20.868Z,0.90
2022-09-01T10:08:20.870Z,0.70
2022-09-01T10:09:20.857Z,0.80
2022-09-01T10:10:20.851Z,0.80
2022-09-01T10:11:20.998Z,0.70
2022-09-01T10:12:20.826Z,0.90
2022-09-01T10:13:20.859Z,0.90
2022-09-01T10:14:35.494Z,1.00
2022-09-01T10:15:21.804Z,0.90
2022-09-01T10:16:22.025Z,1.00
2022-09-01T10:17:20.974Z,0.70
2022-09-01T10:18:21.914Z,0.60
2022-09-01T10:19:21.747Z,1.60
2022-09-01T10:20:20.734Z,1.90
2022-09-01T10:21:20.789Z,2.00
2022-09-01T10:22:20.708Z,1.00
2022-09-01T10:23:20.928Z,1.10
2022-09-01T10:24:21.597Z,0.90
2022-09-01T10:25:20.682Z,0.80
2022-09-01T10:26:20.679Z,0.70
2022-09-01T10:27:20.679Z,0.80
2022-09-01T10:28:21.331Z,0.70
2022-09-01T10:29:20.805Z,0.80
2022-09-01T10:30:20.874Z,0.70
2022-09-01T10:31:20.674Z,0.90
2022-09-01T10:32:35.004Z,0.90
2022-09-01T10:33:22.121Z,0.70
2022-09-01T10:34:20.570Z,0.70
2022-09-01T10:35:20.765Z,0.50
2022-09-01T10:36:24.500Z,0.50
2022-09-01T10:37:20.554Z,0.50
2022-09-01T10:38:20.567Z,0.50
2022-09-01T10:39:21.974Z,0.60
2022-09-01T10:40:30.244Z,0.80
2022-09-01T10:41:21.545Z,0.70
2022-09-01T10:42:20.506Z,0.80
2022-09-01T10:43:20.484Z,0.70
2022-09-01T10:44:20.483Z,0.50
2022-09-01T10:45:20.469Z,0.70
2022-09-01T10:46:39.019Z,0.70
2022-09-01T10:47:21.501Z,0.50
2022-09-01T10:48:30.297Z,0.50
2022-09-01T10:49:27.537Z,0.60
2022-09-01T10:50:21.403Z,0.60
2022-09-01T10:51:21.086Z,0.50
2022-09-01T10:52:25.795Z,0.50
2022-09-01T10:53:26.881Z,0.50
2022-09-01T10:54:21.362Z,0.70
2022-09-01T10:55:24.966Z,0.50
2022-09-01T10:56:28.313Z,0.50
2022-09-01T10:57:26.792Z,0.70
2022-09-01T10:59:41.736Z,0.60
2022-09-01T11:00:37.185Z,0.60
2022-09-01T11:01:46.686Z,0.50
2022-09-01T11:02:23.350Z,0.60
2022-09-01T11:03:42.131Z,0.50
2022-09-01T11:04:21.369Z,0.80
2022-09-01T11:05:20.354Z,0.80
2022-09-01T11:06:20.232Z,0.70
2022-09-01T11:07:38.825Z,0.70
2022-09-01T11:08:21.389Z,0.70
2022-09-01T11:09:20.273Z,0.70
2022-09-01T11:10:35.865Z,0.60
2022-09-01T11:11:21.188Z,0.60
2022-09-01T11:12:29.543Z,0.50
2022-09-01T11:13:21.156Z,0.50
2022-09-01T11:14:20.392Z,1.10
2022-09-01T11:15:20.140Z,1.00
2022-09-01T11:16:45.986Z,1.00
2022-09-01T11:17:21.239Z,1.00
2022-09-01T11:18:20.320Z,0.90
2022-09-01T11:19:20.100Z,1.00
2022-09-01T11:20:20.256Z,0.80
2022-09-01T11:21:20.072Z,0.80
2022-09-01T11:22:20.062Z,0.80
2022-09-01T11:23:20.053Z,0.50
2022-09-01T11:24:20.034Z,0.60
2022-09-01T11:25:20.029Z,0.70
2022-09-01T11:26:20.456Z,0.40
2022-09-01T11:27:19.999Z,0.60
2022-09-01T11:28:20.140Z,0.60
2022-09-01T11:29:19.985Z,0.50
2022-09-01T11:30:19.966Z,0.80
2022-09-01T11:31:19.994Z,0.60
2022-09-01T11:32:20.169Z,0.70
2022-09-01T11:33:19.943Z,0.60
2022-09-01T11:34:19.945Z,0.60
2022-09-01T11:35:19.914Z,0.70
2022-09-01T11:36:19.909Z,0.60
2022-09-01T11:37:19.898Z,0.80
2022-09-01T11:38:20.312Z,0.50
2022-09-01T11:39:20.725Z,0.80
2022-09-01T11:40:19.911Z,0.50
2022-09-01T11:41:19.845Z,0.60
2022-09-01T11:42:19.845Z,0.60
2022-09-01T11:43:19.868Z,0.80
2022-09-01T11:44:19.975Z,0.80
2022-09-01T11:45:20.743Z,0.60
2022-09-01T11:46:19.860Z,0.60
2022-09-01T11:47:19.796Z,0.80
2022-09-01T11:48:19.781Z,0.90
2022-09-01T11:49:19.769Z,0.70
2022-09-01T11:50:19.926Z,0.80
2022-09-01T11:51:19.749Z,0.70
2022-09-01T11:52:19.731Z,0.90
2022-09-01T11:53:19.856Z,0.60
2022-09-01T11:54:19.707Z,0.50
2022-09-01T11:55:19.705Z,0.60
2022-09-01T11:56:19.847Z,0.50
2022-09-01T11:57:19.701Z,0.50
2022-09-01T11:58:19.657Z,0.60
2022-09-01T11:59:19.674Z,0.50
2022-09-01T12:00:19.657Z,0.70
2022-09-01T12:01:19.636Z,0.60
2022-09-01T12:02:20.076Z,0.60
2022-09-01T12:03:19.893Z,0.70
2022-09-01T12:04:19.597Z,0.70
2022-09-01T12:05:19.597Z,0.60
2022-09-01T12:06:19.584Z,0.50
2022-09-01T12:07:19.576Z,0.90
2022-09-01T12:08:24.030Z,0.60
2022-09-01T12:09:19.577Z,0.50
2022-09-01T12:10:19.536Z,0.40
2022-09-01T12:11:19.527Z,0.60
2022-09-01T12:12:19.510Z,0.40
2022-09-01T12:13:19.597Z,0.60
2022-09-01T12:14:19.708Z,0.40
2022-09-01T12:15:19.507Z,0.40
2022-09-01T12:16:19.654Z,0.40
2022-09-01T12:17:19.478Z,0.50
2022-09-01T12:18:19.468Z,0.50
2022-09-01T12:19:19.456Z,0.40
2022-09-01T12:20:19.648Z,0.50
2022-09-01T12:21:19.448Z,0.50
2022-09-01T12:22:19.428Z,0.50
2022-09-01T12:23:19.498Z,0.50
2022-09-01T12:24:19.390Z,0.30
2022-09-01T12:25:19.384Z,0.40
2022-09-01T12:26:19.540Z,0.40
2022-09-01T12:27:19.359Z,0.70
2022-09-01T12:28:19.348Z,0.50
2022-09-01T12:29:19.348Z,1.20
2022-09-01T12:30:19.322Z,1.00
2022-09-01T12:31:19.372Z,1.20
2022-09-01T12:32:19.530Z,0.80
2022-09-01T12:33:23.381Z,0.50
2022-09-01T12:34:19.280Z,0.60
2022-09-01T12:35:19.277Z,0.40
2022-09-01T12:36:19.260Z,0.60
2022-09-01T12:37:19.255Z,0.40
2022-09-01T12:38:19.432Z,0.50
2022-09-01T12:39:19.219Z,0.40
2022-09-01T12:40:20.429Z,0.40
2022-09-01T12:41:19.271Z,0.50
2022-09-01T12:42:19.279Z,0.40
2022-09-01T12:43:19.227Z,0.40
2022-09-01T12:44:19.381Z,0.50
2022-09-01T12:45:19.167Z,0.50
2022-09-01T12:46:19.220Z,0.50
2022-09-01T12:47:19.141Z,0.40
2022-09-01T12:48:19.698Z,0.50
2022-09-01T12:49:19.136Z,0.70
2022-09-01T12:50:19.252Z,0.50
2022-09-01T12:51:19.096Z,0.70
2022-09-01T12:52:19.901Z,0.40
2022-09-01T12:53:19.182Z,0.50
2022-09-01T12:54:21.282Z,0.60
2022-09-01T12:56:20.225Z,0.50
2022-09-01T12:57:19.023Z,1.80
2022-09-01T12:58:19.034Z,1.20
2022-09-01T12:59:23.286Z,1.80
2022-09-01T13:00:20.003Z,3.20
2022-09-01T13:01:19.075Z,0.80
2022-09-01T13:02:19.954Z,0.50
2022-09-01T13:03:19.015Z,0.60
2022-09-01T13:04:18.955Z,0.60
2022-09-01T13:05:18.943Z,0.60
2022-09-01T13:06:18.937Z,0.50
2022-09-01T13:07:18.922Z,0.60
2022-09-01T13:08:19.071Z,0.50
2022-09-01T13:09:18.892Z,0.50
2022-09-01T13:10:18.913Z,0.60
2022-09-01T13:11:20.159Z,0.60
2022-09-01T13:12:18.876Z,0.60
2022-09-01T13:13:18.906Z,0.70
2022-09-01T13:14:19.002Z,0.50
2022-09-01T13:15:18.835Z,0.40
2022-09-01T13:16:18.884Z,0.50
2022-09-01T13:17:18.803Z,0.50
2022-09-01T13:18:19.297Z,0.60
2022-09-01T13:19:27.346Z,0.80
2022-09-01T13:20:19.772Z,0.40
2022-09-01T13:21:18.763Z,0.40
2022-09-01T13:22:18.770Z,0.50
2022-09-01T13:23:18.869Z,0.40
2022-09-01T13:24:18.733Z,0.40
2022-09-01T13:25:18.882Z,0.40
2022-09-01T13:26:18.713Z,0.50
2022-09-01T13:27:22.218Z,0.40
2022-09-01T13:28:18.733Z,0.40
2022-09-01T13:29:18.674Z,0.50
2022-09-01T13:30:18.826Z,0.40
2022-09-01T13:31:35.485Z,0.40
2022-09-01T13:32:21.277Z,0.40
2022-09-01T13:33:20.053Z,0.30
2022-09-01T13:34:22.287Z,0.50
2022-09-01T13:35:19.614Z,0.40
2022-09-01T13:37:19.600Z,0.30
2022-09-01T13:38:18.734Z,0.50
2022-09-01T13:39:18.801Z,0.60
2022-09-01T13:40:18.756Z,1.20
2022-09-01T13:41:18.550Z,1.40